Time;durP1;ratioP1;P1;durP2;ratioP2;P2;SDS_P1;SDS_P2;PMS_P1;PMS_P2;Temp;Humidity;BMP_temperature;BMP_pressure;BME280_temperature;BME280_humidity;BME280_pressure;Samples;Min_cycle;Max_cycle;Signal;HPM_P1;HPM_P2
2021/07/28 00:01:02;;;;;;;16.60;6.18;;;;;;;20.80;60.08;99536.09;4817904;29;20055;-59
2021/07/28 00:03:27;;;;;;;12.05;5.90;;;;;;;20.78;60.34;99536.19;4822498;29;20046;-60
2021/07/28 00:05:53;;;;;;;12.48;6.05;;;;;;;20.77;60.45;99542.47;4822884;29;20111;-58
2021/07/28 00:08:21;;;;;;;11.23;6.57;;;;;;;20.78;60.51;99538.84;4822945;29;20054;-58
2021/07/28 00:10:46;;;;;;;15.07;5.95;;;;;;;20.81;60.47;99540.41;5311925;23;20061;-59
2021/07/28 00:13:12;;;;;;;12.98;6.80;;;;;;;20.87;60.53;99539.94;4835450;29;20050;-58
2021/07/28 00:15:38;;;;;;;12.05;6.10;;;;;;;20.92;60.26;99533.34;4837777;29;20072;-58
2021/07/28 00:18:12;;;;;;;15.60;6.28;;;;;;;20.99;59.96;99538.94;4837871;29;20046;-58
2021/07/28 00:23:16;;;;;;;12.77;5.75;;;;;;;21.08;59.79;99539.09;4837596;29;20042;-57
2021/07/28 00:25:43;;;;;;;17.17;6.10;;;;;;;21.10;59.70;99539.78;4836771;29;20132;-60
2021/07/28 00:28:09;;;;;;;20.05;6.68;;;;;;;21.16;59.84;99537.63;4836984;29;20107;-59
2021/07/28 00:30:35;;;;;;;11.05;6.05;;;;;;;21.19;59.69;99543.53;4834877;29;20493;-59
2021/07/28 00:33:01;;;;;;;13.07;6.00;;;;;;;21.21;59.48;99540.75;4828335;29;20085;-60
2021/07/28 00:35:26;;;;;;;16.83;6.43;;;;;;;21.24;59.59;99537.88;4808294;29;20514;-60
2021/07/28 00:37:54;;;;;;;16.70;5.97;;;;;;;21.24;59.38;99533.44;4825695;29;20085;-59
2021/07/28 00:40:20;;;;;;;13.88;6.00;;;;;;;21.27;59.15;99535.81;4841733;29;20533;-59
2021/07/28 00:42:46;;;;;;;16.80;6.97;;;;;;;21.28;59.04;99523.44;4837742;29;20038;-59
2021/07/28 00:45:13;;;;;;;15.25;7.15;;;;;;;21.29;59.23;99520.69;4836660;29;20049;-58
2021/07/28 00:47:38;;;;;;;12.20;6.07;;;;;;;21.29;59.30;99523.31;4834946;29;20500;-59
2021/07/28 00:50:05;;;;;;;17.13;7.05;;;;;;;21.28;59.47;99526.94;4820283;29;20137;-58
2021/07/28 00:52:37;;;;;;;13.55;6.22;;;;;;;21.28;59.53;99515.50;4820444;29;20080;-58
2021/07/28 00:55:07;;;;;;;9.07;5.63;;;;;;;21.32;59.74;99522.22;4834140;29;20504;-57
2021/07/28 00:57:32;;;;;;;14.00;5.97;;;;;;;21.30;59.52;99514.41;4820910;29;20053;-58
2021/07/28 00:59:59;;;;;;;12.85;5.38;;;;;;;21.30;59.55;99505.66;4836588;29;20056;-58
2021/07/28 01:02:25;;;;;;;11.75;5.20;;;;;;;21.29;59.70;99511.91;4836595;29;20057;-59
2021/07/28 01:04:50;;;;;;;13.63;5.97;;;;;;;21.27;59.60;99511.19;4837438;29;20038;-59
2021/07/28 01:07:16;;;;;;;13.63;5.70;;;;;;;21.25;59.62;99498.06;4836255;29;20050;-58
2021/07/28 01:12:47;;;;;;;13.60;6.13;;;;;;;21.20;59.94;99500.25;4883908;24;20068;-58
2021/07/28 01:15:22;;;;;;;17.98;6.75;;;;;;;21.19;60.18;99503.88;4768307;30;20047;-59
2021/07/28 01:17:49;;;;;;;24.55;10.07;;;;;;;21.17;60.22;99508.44;4768574;30;20509;-58
2021/07/28 01:20:16;;;;;;;16.77;7.43;;;;;;;21.13;60.33;99505.19;4768439;30;20462;-58
2021/07/28 01:22:41;;;;;;;15.30;7.40;;;;;;;21.10;60.42;99500.13;4750716;30;20531;-58
2021/07/28 01:25:07;;;;;;;25.40;11.68;;;;;;;21.05;60.84;99498.81;4729469;30;20048;-59
2021/07/28 01:27:33;;;;;;;18.33;8.15;;;;;;;21.00;61.16;99503.63;4746641;30;20154;-59
2021/07/28 01:29:59;;;;;;;12.80;6.72;;;;;;;20.94;61.30;99499.66;4746539;30;20048;-58
2021/07/28 01:32:25;;;;;;;19.00;7.38;;;;;;;20.90;61.22;99492.13;4744769;30;20175;-58
2021/07/28 01:34:53;;;;;;;16.80;6.80;;;;;;;20.86;61.24;99491.53;4730181;30;20044;-58
2021/07/28 01:37:19;;;;;;;23.83;9.98;;;;;;;20.83;61.34;99491.75;4748253;30;20059;-58
2021/07/28 01:39:45;;;;;;;17.17;7.68;;;;;;;20.81;61.75;99496.34;4706131;30;20416;-58
2021/07/28 01:42:11;;;;;;;13.98;6.07;;;;;;;20.77;61.61;99496.72;4694410;30;20052;-57
2021/07/28 01:44:39;;;;;;;12.45;6.05;;;;;;;20.73;61.91;99494.28;4748301;30;20129;-58
2021/07/28 01:47:06;;;;;;;11.60;5.57;;;;;;;20.69;62.04;99492.84;4750106;30;20051;-59
2021/07/28 01:49:31;;;;;;;14.85;6.05;;;;;;;20.67;62.22;99486.84;4750450;30;20083;-59
2021/07/28 01:51:57;;;;;;;11.90;5.72;;;;;;;20.64;62.11;99478.34;4748304;30;20559;-58
2021/07/28 01:54:23;;;;;;;11.13;5.50;;;;;;;20.62;62.33;99483.72;4744346;30;20048;-58
2021/07/28 01:56:48;;;;;;;14.40;6.72;;;;;;;20.62;62.26;99483.72;4744351;30;20189;-58
2021/07/28 01:59:15;;;;;;;17.27;6.18;;;;;;;20.61;62.57;99479.44;4743728;30;20797;-58
2021/07/28 02:01:41;;;;;;;11.85;6.07;;;;;;;20.59;62.52;99473.41;4745064;30;20135;-59
2021/07/28 02:04:06;;;;;;;12.23;6.85;;;;;;;20.52;62.46;99464.28;4746400;30;20127;-58
2021/07/28 02:06:33;;;;;;;12.35;5.95;;;;;;;20.60;62.52;99482.19;4743994;30;20045;-59
2021/07/28 02:08:59;;;;;;;13.60;6.40;;;;;;;20.59;62.30;99476.06;4745793;30;20143;-59
2021/07/28 02:14:29;;;;;;;11.40;6.32;;;;;;;20.58;62.41;99471.72;4742465;30;20131;-58
2021/07/28 02:16:54;;;;;;;11.10;5.95;;;;;;;20.59;62.52;99472.56;4746155;30;20130;-58
2021/07/28 02:19:20;;;;;;;10.45;5.93;;;;;;;20.59;62.66;99473.41;4745143;30;20040;-58
2021/07/28 02:24:27;;;;;;;17.58;6.45;;;;;;;20.59;62.80;99460.22;5063978;24;20523;-59
2021/07/28 02:26:53;;;;;;;12.07;5.43;;;;;;;20.59;62.86;99460.22;4762439;30;20083;-59
2021/07/28 02:29:18;;;;;;;15.75;6.20;;;;;;;20.61;63.00;99462.75;4767650;30;20048;-59
2021/07/28 02:31:44;;;;;;;13.52;6.40;;;;;;;20.61;62.81;99458.28;4767951;30;20401;-58
2021/07/28 02:34:10;;;;;;;15.18;6.13;;;;;;;20.63;62.92;99460.78;4763016;29;20051;-59
2021/07/28 02:36:35;;;;;;;12.07;5.70;;;;;;;20.66;62.92;99456.13;4754631;30;20055;-61
2021/07/28 02:39:01;;;;;;;13.75;6.00;;;;;;;20.66;62.97;99453.50;4763648;30;20055;-59
2021/07/28 02:41:26;;;;;;;14.77;5.65;;;;;;;20.68;62.95;99456.81;4756026;30;20041;-59
2021/07/28 02:43:52;;;;;;;12.15;5.65;;;;;;;20.47;62.98;99426.81;5238271;24;20041;-58
2021/07/28 02:46:21;;;;;;;12.20;6.05;;;;;;;20.69;63.10;99466.44;4727307;30;20064;-58
2021/07/28 02:48:47;;;;;;;13.45;6.55;;;;;;;20.69;63.19;99463.78;4755634;30;20062;-59
2021/07/28 02:51:13;;;;;;;13.70;6.05;;;;;;;20.70;63.17;99468.13;4745994;30;20048;-58
2021/07/28 02:53:39;;;;;;;13.30;6.57;;;;;;;20.71;63.28;99461.88;4761623;30;20764;-58
2021/07/28 02:56:04;;;;;;;7.63;6.05;;;;;;;20.75;63.39;99466.91;5224194;24;20606;-59
2021/07/28 02:58:30;;;;;;;12.18;6.45;;;;;;;20.73;63.29;99464.38;4734894;30;20045;-59
2021/07/28 03:00:56;;;;;;;12.65;5.85;;;;;;;20.76;63.40;99468.59;4735403;30;20071;-59
2021/07/28 03:03:22;;;;;;;12.02;6.35;;;;;;;20.75;63.66;99459.84;4735713;30;20056;-59
2021/07/28 03:05:50;;;;;;;13.25;6.18;;;;;;;20.74;63.35;99444.94;4735449;30;20048;-59
2021/07/28 03:08:16;;;;;;;13.73;5.97;;;;;;;20.76;63.31;99445.66;4713853;30;20708;-59
2021/07/28 03:10:42;;;;;;;12.23;6.32;;;;;;;20.78;63.03;99449.00;4730931;30;20044;-60
2021/07/28 03:13:08;;;;;;;11.85;6.30;;;;;;;20.83;63.06;99453.94;4729546;30;20432;-59
2021/07/28 03:15:33;;;;;;;9.52;5.75;;;;;;;20.83;63.05;99453.94;4734982;30;20139;-58
2021/07/28 03:18:00;;;;;;;15.65;6.13;;;;;;;20.83;63.20;99449.47;4735418;30;20049;-58
2021/07/28 03:20:26;;;;;;;12.52;6.50;;;;;;;20.87;63.17;99450.94;4735636;30;20053;-60
2021/07/28 03:22:51;;;;;;;13.00;7.15;;;;;;;20.90;63.20;99440.09;4719503;30;20429;-58
2021/07/28 03:25:17;;;;;;;13.93;7.18;;;;;;;20.93;63.03;99439.88;4735365;30;20393;-59
2021/07/28 03:27:43;;;;;;;13.05;6.93;;;;;;;20.96;62.78;99438.75;4719174;30;20099;-59
2021/07/28 03:30:09;;;;;;;15.23;6.55;;;;;;;20.97;62.67;99429.88;4735389;30;20044;-59
2021/07/28 03:32:34;;;;;;;12.82;6.20;;;;;;;21.02;62.66;99433.00;4735177;30;20048;-59
2021/07/28 03:35:00;;;;;;;18.13;7.72;;;;;;;21.05;62.55;99435.38;4734760;30;20463;-59
2021/07/28 03:37:26;;;;;;;13.82;6.82;;;;;;;21.05;62.53;99424.78;4714735;30;20067;-59
2021/07/28 03:40:00;;;;;;;12.15;7.22;;;;;;;21.18;62.46;99440.53;4730517;30;20048;-59
2021/07/28 03:42:30;;;;;;;15.85;6.97;;;;;;;21.22;62.55;99432.22;4729113;30;20092;-59
2021/07/28 03:47:52;;;;;;;9.77;7.05;;;;;;;21.35;62.23;99434.72;4961106;24;20067;-59
2021/07/28 03:50:18;;;;;;;13.48;6.78;;;;;;;21.36;62.65;99439.00;4753009;30;20134;-60
2021/07/28 03:52:43;;;;;;;17.00;8.05;;;;;;;21.38;62.44;99437.09;4769601;30;20039;-59
2021/07/28 03:55:10;;;;;;;12.38;6.75;;;;;;;21.46;61.95;99434.63;4768938;30;20047;-59
2021/07/28 03:57:36;;;;;;;18.25;8.38;;;;;;;21.54;61.65;99433.06;5236932;24;20117;-59
2021/07/28 04:00:03;;;;;;;20.42;7.50;;;;;;;21.64;61.32;99426.97;4752197;30;20474;-59
2021/07/28 04:02:30;;;;;;;16.90;7.82;;;;;;;21.73;61.24;99428.84;4769105;30;20044;-59
2021/07/28 04:04:56;;;;;;;12.75;7.30;;;;;;;21.80;60.83;99420.28;4769008;30;20079;-59
2021/07/28 04:07:21;;;;;;;18.42;8.18;;;;;;;21.91;60.63;99428.16;4752658;30;20074;-59
2021/07/28 04:09:47;;;;;;;15.25;8.10;;;;;;;22.01;60.36;99419.44;4769325;30;20048;-59
2021/07/28 04:12:13;;;;;;;13.50;7.80;;;;;;;22.08;60.39;99413.50;4766036;30;20134;-59
2021/07/28 04:14:39;;;;;;;12.68;7.18;;;;;;;22.17;60.18;99419.81;4754244;30;20048;-59
2021/07/28 04:17:05;;;;;;;16.67;8.10;;;;;;;22.31;60.02;99419.44;4768986;30;20131;-58
2021/07/28 04:19:31;;;;;;;16.08;7.90;;;;;;;22.43;59.52;99417.53;4768637;30;20495;-58
2021/07/28 04:21:57;;;;;;;12.32;7.45;;;;;;;22.56;59.18;99418.97;4768481;30;20087;-59
2021/07/28 04:24:23;;;;;;;17.98;8.55;;;;;;;22.76;58.39;99415.44;4739709;30;20048;-60
2021/07/28 04:27:04;;;;;;;13.55;7.72;;;;;;;22.98;57.87;99424.09;5132221;24;20026;31
2021/07/28 04:29:29;;;;;;;17.98;8.30;;;;;;;23.14;57.43;99417.28;4746180;30;20060;-59
2021/07/28 04:31:55;;;;;;;19.25;8.93;;;;;;;23.30;56.85;99414.09;4751651;30;20051;-59
2021/07/28 04:34:21;;;;;;;13.68;8.38;;;;;;;23.44;56.36;99421.66;4751773;30;20044;-60
2021/07/28 04:36:46;;;;;;;16.05;7.80;;;;;;;23.54;55.94;99416.34;4745382;30;20390;-59
2021/07/28 04:39:12;;;;;;;16.67;7.88;;;;;;;23.67;55.62;99411.56;4741301;30;20056;-58
2021/07/28 04:41:37;;;;;;;19.05;8.70;;;;;;;23.86;55.19;99411.56;4744415;30;20040;-59
2021/07/28 04:44:03;;;;;;;11.65;7.43;;;;;;;24.10;54.69;99428.81;4727782;30;20478;-58
2021/07/28 04:46:29;;;;;;;16.25;7.97;;;;;;;24.29;53.98;99431.44;4739550;30;20086;-60
2021/07/28 04:48:55;;;;;;;18.48;8.25;;;;;;;24.40;53.63;99421.44;5223507;24;20464;-59
2021/07/28 04:51:21;;;;;;;14.93;8.18;;;;;;;24.59;52.97;99430.34;4786721;30;20054;-60
2021/07/28 04:53:46;;;;;;;16.77;8.25;;;;;;;24.76;52.95;99422.38;4787578;29;20078;-59
2021/07/28 04:56:12;;;;;;;15.40;8.48;;;;;;;24.92;52.39;99420.91;4787264;30;20530;-59
2021/07/28 04:58:38;;;;;;;14.93;8.00;;;;;;;25.04;52.25;99420.56;4786620;30;20098;-59
2021/07/28 05:01:03;;;;;;;20.45;8.20;;;;;;;25.12;51.95;99420.63;4782328;29;20058;-58
2021/07/28 05:03:29;;;;;;;17.02;8.52;;;;;;;25.19;51.72;99419.03;4782020;29;20051;-58
2021/07/28 05:05:55;;;;;;;16.60;8.57;;;;;;;25.26;52.04;99417.47;4766067;30;20162;-59
2021/07/28 05:08:20;;;;;;;17.92;7.95;;;;;;;25.30;51.82;99418.81;4781571;29;20051;-59
2021/07/28 05:10:49;;;;;;;17.08;9.25;;;;;;;25.33;51.58;99424.84;4781818;29;20101;-59
2021/07/28 05:13:15;;;;;;;;;;;;;;;25.30;51.57;99420.63;4750444;30;20039;-60
2021/07/28 05:15:40;;;;;;;16.35;8.88;;;;;;;25.23;52.04;99419.56;4782169;29;20004;-59
2021/07/28 05:18:06;;;;;;;11.65;8.05;;;;;;;25.26;52.10;99419.28;4782813;29;20047;-59
2021/07/28 05:20:32;;;;;;;18.98;9.95;;;;;;;25.20;52.13;99417.22;4781393;29;20054;-60
2021/07/28 05:22:57;;;;;;;21.85;9.38;;;;;;;25.13;52.62;99411.66;4779518;29;20130;-60
2021/07/28 05:25:23;;;;;;;17.48;8.50;;;;;;;25.09;52.86;99420.09;4774927;29;20047;-59
2021/07/28 05:27:49;;;;;;;19.20;9.30;;;;;;;25.02;53.13;99422.53;4780810;30;20411;-59
2021/07/28 05:30:15;;;;;;;18.17;10.18;;;;;;;24.94;53.66;99419.78;4781304;29;20728;-59
2021/07/28 05:32:40;;;;;;;18.08;8.55;;;;;;;24.96;53.71;99430.28;4775875;29;20059;-59
2021/07/28 05:35:06;;;;;;;22.42;9.55;;;;;;;24.94;53.84;99424.28;4779381;30;20410;-59
2021/07/28 05:37:32;;;;;;;25.00;9.82;;;;;;;24.85;54.27;99429.47;4780999;29;22184;-63
2021/07/28 05:39:58;;;;;;;21.02;9.65;;;;;;;24.87;54.19;99424.88;4781687;29;20054;-60
2021/07/28 05:42:23;;;;;;;21.73;9.80;;;;;;;24.81;53.54;99430.75;4781096;29;20683;-60
2021/07/28 05:44:49;;;;;;;18.88;10.15;;;;;;;24.80;53.26;99430.91;4777805;29;20066;-59
2021/07/28 05:47:14;;;;;;;21.42;9.98;;;;;;;24.79;53.30;99435.41;4781375;30;20083;-60
2021/07/28 05:49:40;;;;;;;29.17;10.23;;;;;;;24.74;53.50;99435.00;5229521;24;20071;-60
2021/07/28 05:52:06;;;;;;;16.95;9.00;;;;;;;24.65;52.40;99438.53;4768521;30;20050;-60
2021/07/28 05:54:32;;;;;;;14.23;7.90;;;;;;;24.65;51.73;99446.50;4768246;30;20515;-59
2021/07/28 05:56:57;;;;;;;10.18;6.25;;;;;;;24.59;50.54;99448.94;4767935;30;20052;-59
2021/07/28 05:59:23;;;;;;;11.00;6.95;;;;;;;24.45;50.43;99444.94;4766549;30;20044;-62
2021/07/28 06:01:49;;;;;;;12.43;6.30;;;;;;;24.46;50.62;99444.78;4763118;30;20044;-61
2021/07/28 06:04:14;;;;;;;15.43;7.57;;;;;;;24.51;50.42;99438.19;4763012;30;20111;-60
2021/07/28 06:06:40;;;;;;;11.27;6.15;;;;;;;24.37;50.24;99448.34;4763354;30;20088;-59
2021/07/28 06:09:14;;;;;;;8.77;5.93;;;;;;;24.23;50.61;99454.13;5196347;24;20034;31
2021/07/28 06:11:40;;;;;;;12.70;6.10;;;;;;;24.07;51.18;99436.06;4745195;30;20088;-59
2021/07/28 06:14:07;;;;;;;8.98;6.30;;;;;;;23.99;51.49;99451.06;4748867;30;20420;-61
2021/07/28 06:16:34;;;;;;;11.82;6.30;;;;;;;23.88;52.13;99446.75;4749233;30;20048;-59
2021/07/28 06:19:00;;;;;;;8.27;6.25;;;;;;;23.82;52.97;99462.41;4748466;30;20048;-58
2021/07/28 06:21:25;;;;;;;8.57;6.60;;;;;;;23.65;53.72;99458.69;4732471;30;20051;-59
2021/07/28 06:23:51;;;;;;;16.83;6.72;;;;;;;23.57;54.60;99447.91;4731460;30;20041;-60
2021/07/28 06:26:16;;;;;;;10.43;6.72;;;;;;;23.46;55.12;99461.31;4716208;30;20144;-60
2021/07/28 06:28:43;;;;;;;14.30;6.68;;;;;;;23.41;55.50;99461.72;4730723;30;20409;-59
2021/07/28 06:31:08;;;;;;;12.80;6.25;;;;;;;23.37;56.22;99462.97;5203524;24;20118;-59
2021/07/28 06:33:34;;;;;;;10.48;6.22;;;;;;;23.27;56.51;99461.28;4732185;30;20053;-59
2021/07/28 06:36:00;;;;;;;17.58;6.68;;;;;;;23.18;57.13;99457.66;4732559;30;20103;-58
2021/07/28 06:38:26;;;;;;;18.63;7.38;;;;;;;23.15;57.27;99457.91;4732507;30;20402;-59
2021/07/28 06:40:52;;;;;;;11.10;6.43;;;;;;;23.17;57.27;99458.63;4731523;30;20063;-58
2021/07/28 06:43:18;;;;;;;16.15;6.88;;;;;;;23.20;57.38;99458.34;4731527;30;20053;-59
2021/07/28 06:45:43;;;;;;;10.65;6.28;;;;;;;23.21;57.50;99462.69;4718503;30;20529;-59
2021/07/28 06:48:10;;;;;;;10.52;5.90;;;;;;;23.20;58.02;99464.50;4719882;30;20910;-58
2021/07/28 06:50:36;;;;;;;11.50;6.03;;;;;;;23.16;58.60;99459.59;5213280;24;20059;-58
2021/07/28 06:53:02;;;;;;;10.73;6.13;;;;;;;23.14;59.01;99473.00;4784668;29;20059;-58
2021/07/28 06:55:28;;;;;;;15.50;5.70;;;;;;;23.12;59.52;99476.78;4774745;30;20043;-59
2021/07/28 06:57:54;;;;;;;10.75;5.90;;;;;;;23.07;60.33;99465.75;4784040;29;20150;-58
2021/07/28 07:00:19;;;;;;;12.63;6.65;;;;;;;23.04;60.43;99466.84;4775783;29;20134;-59
2021/07/28 07:02:45;;;;;;;8.88;5.32;;;;;;;23.07;60.88;99469.22;4773620;30;20947;-62
2021/07/28 07:05:12;;;;;;;11.57;6.70;;;;;;;23.05;60.97;99475.63;4775440;29;20051;-62
2021/07/28 07:07:37;;;;;;;14.60;6.43;;;;;;;23.01;61.71;99466.28;4773540;30;20526;-62
2021/07/28 07:10:20;;;;;;;14.02;6.60;;;;;;;23.04;61.65;99471.31;5141891;24;20134;31
2021/07/28 07:12:46;;;;;;;10.70;6.30;;;;;;;23.07;61.77;99476.34;4742674;30;20140;-61
2021/07/28 07:15:11;;;;;;;9.98;5.70;;;;;;;22.97;62.44;99473.69;4732946;30;20512;-61
2021/07/28 07:17:37;;;;;;;12.23;6.57;;;;;;;22.94;62.39;99463.31;4749448;30;20054;-61
2021/07/28 07:20:03;;;;;;;14.38;6.35;;;;;;;22.94;62.95;99471.28;4749142;30;20090;-59
2021/07/28 07:22:29;;;;;;;12.05;5.60;;;;;;;22.86;64.24;99465.00;4748490;30;20182;-61
2021/07/28 07:24:55;;;;;;;15.88;6.40;;;;;;;22.75;64.98;99464.13;4744843;30;20233;-62
2021/07/28 07:27:20;;;;;;;9.85;6.40;;;;;;;22.64;65.81;99460.72;4745967;30;20083;-63
2021/07/28 07:29:48;;;;;;;13.35;6.85;;;;;;;22.56;66.22;99469.31;4744402;30;20044;-61
2021/07/28 07:32:20;;;;;;;10.45;6.85;;;;;;;22.53;67.04;99458.16;4746200;30;20109;-62
2021/07/28 07:34:46;;;;;;;8.75;7.10;;;;;;;22.48;68.33;99463.00;4716228;30;20075;-61
2021/07/28 07:37:11;;;;;;;11.15;7.10;;;;;;;22.47;68.71;99459.53;4745182;30;20512;-59
2021/07/28 07:39:37;;;;;;;15.07;7.35;;;;;;;22.43;69.56;99457.28;4742607;30;20098;-62
2021/07/28 07:42:03;;;;;;;10.73;7.47;;;;;;;22.51;70.15;99458.28;4747577;30;20127;-62
2021/07/28 07:44:28;;;;;;;12.27;7.72;;;;;;;22.55;70.44;99458.88;4750118;30;20051;-59
2021/07/28 07:46:54;;;;;;;11.10;7.40;;;;;;;22.54;70.51;99447.44;4748561;30;20044;-61
2021/07/28 07:49:20;;;;;;;18.38;9.00;;;;;;;22.70;70.34;99454.88;4750541;30;20040;-60
2021/07/28 07:51:45;;;;;;;9.48;7.57;;;;;;;22.84;70.08;99451.03;4750225;30;20056;-62
2021/07/28 07:54:11;;;;;;;9.15;7.35;;;;;;;22.96;69.28;99442.84;4745645;30;20052;-62
2021/07/28 07:56:37;;;;;;;10.60;6.70;;;;;;;23.02;68.73;99447.59;4750924;30;20063;-60
2021/07/28 07:59:03;;;;;;;12.52;6.72;;;;;;;23.02;68.01;99444.94;4750249;30;20044;-62
2021/07/28 08:01:29;;;;;;;11.70;7.25;;;;;;;23.07;67.96;99439.22;4749706;30;20684;-61
2021/07/28 08:03:55;;;;;;;12.93;7.18;;;;;;;23.08;68.09;99432.94;4734776;30;20497;-63
2021/07/28 08:06:21;;;;;;;11.13;7.20;;;;;;;23.14;68.42;99427.06;4748163;30;20048;-61
2021/07/28 08:08:46;;;;;;;10.25;7.40;;;;;;;23.24;67.87;99433.22;4733276;30;20102;-60
2021/07/28 08:11:15;;;;;;;12.90;7.18;;;;;;;23.36;67.59;99433.91;4748325;30;20048;-61
2021/07/28 08:13:41;;;;;;;;;;;;;;;23.59;66.73;99430.03;4749521;30;20052;-60
2021/07/28 08:16:16;;;;;;;13.48;8.10;;;;;;;23.83;65.90;99433.06;4750252;30;19930;-59
2021/07/28 08:18:42;;;;;;;10.57;7.22;;;;;;;24.01;65.37;99433.19;4749190;30;20054;-64
2021/07/28 08:21:09;;;;;;;17.25;7.70;;;;;;;24.07;64.63;99432.59;4748050;30;20051;-61
2021/07/28 08:23:36;;;;;;;12.07;7.20;;;;;;;24.01;64.93;99436.69;4729147;30;20056;-58
2021/07/28 08:26:02;;;;;;;13.00;7.10;;;;;;;24.00;64.81;99435.00;4731466;30;20087;-59
2021/07/28 08:28:28;;;;;;;11.48;7.38;;;;;;;24.00;64.94;99429.69;4744580;30;20118;-59
2021/07/28 08:33:48;;;;;;;13.50;8.07;;;;;;;23.98;65.27;99430.78;4723362;28;20072;-59
2021/07/28 08:36:15;;;;;;;10.45;7.07;;;;;;;23.98;64.86;99426.31;4727669;30;20071;-61
2021/07/28 08:38:41;;;;;;;13.98;7.90;;;;;;;24.00;65.29;99420.88;4729858;30;20052;-59
2021/07/28 08:41:07;;;;;;;12.10;7.20;;;;;;;24.03;63.90;99428.53;4728813;30;20056;-59
2021/07/28 08:43:37;;;;;;;15.15;7.47;;;;;;;23.93;64.44;99415.28;5229918;24;20052;-61
2021/07/28 08:46:05;;;;;;;22.95;15.48;;;;;;;23.93;64.13;99414.47;4762113;30;20048;-59
2021/07/28 08:48:32;;;;;;;10.77;7.37;;;;;;;24.00;63.72;99415.56;4743407;30;20059;-62
2021/07/28 08:50:58;;;;;;;14.63;8.07;;;;;;;24.02;63.97;99408.31;4761030;30;20044;-61
2021/07/28 08:53:25;;;;;;;12.43;8.30;;;;;;;24.06;63.89;99409.69;4754036;30;20079;-60
2021/07/28 08:55:56;;;;;;;15.43;7.82;;;;;;;24.01;63.66;99414.59;4743719;30;20078;-60
2021/07/28 08:58:22;;;;;;;11.65;8.35;;;;;;;23.99;63.62;99409.41;4743915;30;20048;-61
2021/07/28 09:00:49;;;;;;;10.80;7.93;;;;;;;24.02;63.68;99408.31;4746507;30;20474;-60
2021/07/28 09:03:14;;;;;;;12.80;8.70;;;;;;;24.07;63.56;99408.69;4747042;30;20044;-58
2021/07/28 09:05:47;;;;;;;10.60;8.10;;;;;;;24.16;63.05;99410.47;4750486;30;20104;-60
2021/07/28 09:08:27;;;;;;;11.10;8.35;;;;;;;24.21;62.96;99410.06;4749745;30;20062;-59
2021/07/28 09:10:59;;;;;;;11.07;7.57;;;;;;;24.36;62.44;99408.59;4750640;30;20492;-59
2021/07/28 09:13:32;;;;;;;10.60;7.32;;;;;;;24.52;62.19;99402.66;4749150;30;20780;-57
2021/07/28 09:16:05;;;;;;;9.63;7.57;;;;;;;24.49;61.04;99401.16;4745723;30;20135;-58
2021/07/28 09:18:43;;;;;;;11.73;6.75;;;;;;;24.45;61.12;99407.72;4748286;30;20055;-58
2021/07/28 09:21:18;;;;;;;10.38;7.70;;;;;;;24.53;61.01;99402.53;4751039;30;20088;-59
2021/07/28 09:23:51;;;;;;;8.93;7.03;;;;;;;24.63;60.35;99405.13;5232354;24;20030;-62
2021/07/28 09:26:51;;;;;;;12.73;7.25;;;;;;;24.71;60.43;99403.38;4769926;30;20404;-60
2021/07/28 09:29:21;;;;;;;10.38;7.55;;;;;;;24.73;60.08;99393.44;4786486;30;20589;-57
2021/07/28 09:31:52;;;;;;;13.20;7.07;;;;;;;24.80;59.47;99394.53;4782774;29;20530;-58
2021/07/28 09:34:19;;;;;;;9.68;7.00;;;;;;;24.72;59.00;99405.06;4776495;30;20051;-60
2021/07/28 09:36:54;;;;;;;10.02;7.00;;;;;;;24.70;59.17;99395.56;4777777;30;20055;-59
2021/07/28 09:39:29;;;;;;;8.88;7.00;;;;;;;24.71;58.95;99397.22;4771037;30;20055;-59
2021/07/28 09:41:57;;;;;;;9.50;6.32;;;;;;;24.63;58.00;99387.34;4767749;30;20058;-58
2021/07/28 09:44:27;;;;;;;11.73;6.18;;;;;;;24.70;57.99;99388.44;5234505;24;20139;-59
2021/07/28 09:47:05;;;;;;;13.07;6.85;;;;;;;24.95;57.75;99386.91;4763468;30;20131;-60
2021/07/28 09:49:31;;;;;;;7.80;5.90;;;;;;;25.01;56.41;99388.94;4766779;30;20054;-59
2021/07/28 09:51:56;;;;;;;9.30;5.47;;;;;;;24.86;55.87;99390.44;4768057;30;20044;-60
2021/07/28 09:54:26;;;;;;;7.82;5.25;;;;;;;24.76;55.49;99386.97;4763809;30;20054;-60
2021/07/28 09:56:57;;;;;;;11.57;5.63;;;;;;;24.91;55.57;99379.38;4763874;30;20459;-62
2021/07/28 09:59:22;;;;;;;11.43;6.57;;;;;;;24.88;56.07;99377.84;4758533;30;20111;-58
2021/07/28 10:01:48;;;;;;;9.07;5.80;;;;;;;24.80;54.95;99389.22;4762101;29;20051;-59
2021/07/28 10:04:19;;;;;;;6.32;5.32;;;;;;;24.71;55.03;99374.13;4761769;30;20525;-58
2021/07/28 10:06:47;;;;;;;8.32;5.75;;;;;;;24.83;55.55;99383.56;4744126;30;20104;-60
2021/07/28 10:09:16;;;;;;;11.63;6.47;;;;;;;24.91;56.42;99376.72;4761242;30;20056;-60
2021/07/28 10:11:50;;;;;;;9.23;6.88;;;;;;;24.99;57.24;99374.13;4759210;30;20527;-60
2021/07/28 10:14:17;;;;;;;9.35;6.07;;;;;;;25.05;56.74;99374.34;4760093;30;20060;-59
2021/07/28 10:16:43;;;;;;;8.85;6.15;;;;;;;24.95;56.31;99367.44;4761337;30;20048;-60
2021/07/28 10:19:09;;;;;;;8.70;5.28;;;;;;;24.92;56.24;99375.69;4765873;30;20044;-58
2021/07/28 10:21:35;;;;;;;10.50;5.68;;;;;;;24.83;55.66;99356.97;4763390;30;20205;-60
2021/07/28 10:24:02;;;;;;;9.02;5.25;;;;;;;24.76;55.26;99363.03;4761800;30;20054;-59
2021/07/28 10:26:38;;;;;;;11.35;5.82;;;;;;;24.71;55.96;99362.66;4759348;30;20048;-60
2021/07/28 10:29:05;;;;;;;9.43;5.20;;;;;;;24.68;56.55;99361.16;4764881;30;20051;-58
2021/07/28 10:31:53;;;;;;;10.48;5.97;;;;;;;24.65;57.33;99364.09;4765643;30;20087;-59
2021/07/28 10:34:25;;;;;;;8.85;5.97;;;;;;;24.52;58.04;99360.13;4762312;30;20165;-59
2021/07/28 10:37:01;;;;;;;7.93;6.00;;;;;;;24.53;58.34;99359.16;4761304;30;20044;-59
2021/07/28 10:39:42;;;;;;;8.35;5.53;;;;;;;24.53;58.66;99352.00;4738967;30;20055;-60
2021/07/28 10:42:12;;;;;;;8.30;6.18;;;;;;;24.57;58.23;99356.03;4758571;30;20134;-59
2021/07/28 10:44:56;;;;;;;16.75;6.97;;;;;;;24.51;58.30;99358.44;5228274;24;20136;-58
2021/07/28 10:47:39;;;;;;;8.68;6.15;;;;;;;24.45;58.77;99351.91;4746015;30;20158;-60
2021/07/28 10:50:09;;;;;;;10.18;6.22;;;;;;;24.29;59.51;99325.97;4738332;30;20056;-59
2021/07/28 10:52:37;;;;;;;11.95;7.13;;;;;;;24.44;60.05;99353.72;4743403;30;20094;-60
2021/07/28 10:55:02;;;;;;;14.05;8.57;;;;;;;24.37;60.99;99354.47;5222142;24;20060;-58
2021/07/28 10:57:34;;;;;;;12.23;7.45;;;;;;;24.28;61.29;99353.56;4722729;30;20106;-60
2021/07/28 11:00:05;;;;;;;12.23;7.32;;;;;;;24.19;61.33;99357.06;4721088;30;20048;-57
2021/07/28 11:02:52;;;;;;;13.63;7.13;;;;;;;24.07;61.40;99345.75;4722764;30;20067;-59
2021/07/28 11:05:19;;;;;;;9.32;6.28;;;;;;;24.08;60.72;99339.47;4719209;30;20060;-60
2021/07/28 11:08:03;;;;;;;8.90;6.68;;;;;;;24.09;60.72;99335.00;4723816;30;20056;-60
2021/07/28 11:10:30;;;;;;;8.18;5.97;;;;;;;24.07;60.74;99326.38;4722565;30;20041;-60
2021/07/28 11:12:56;;;;;;;9.07;5.80;;;;;;;23.99;61.32;99323.59;4735727;30;20470;-61
2021/07/28 11:15:22;;;;;;;10.48;6.82;;;;;;;24.02;61.36;99323.31;4732872;30;20049;-60
2021/07/28 11:17:58;;;;;;;11.32;6.97;;;;;;;24.15;61.30;99321.13;4739612;30;20105;-61
2021/07/28 11:20:44;;;;;;;10.20;5.88;;;;;;;24.17;60.71;99321.88;4713867;30;20049;-60
2021/07/28 11:23:23;;;;;;;9.93;6.82;;;;;;;24.07;60.37;99318.41;4728818;30;20060;-60
2021/07/28 11:25:48;;;;;;;9.95;6.28;;;;;;;24.04;60.24;99318.66;4716892;30;20136;-60
2021/07/28 11:28:17;;;;;;;8.32;6.20;;;;;;;24.02;60.56;99305.53;4734025;30;20139;-60
2021/07/28 11:30:43;;;;;;;13.50;6.88;;;;;;;24.07;60.79;99310.44;4735249;30;20048;-60
2021/07/28 11:33:13;;;;;;;12.43;6.93;;;;;;;24.23;60.94;99304.50;4717146;30;20055;-61
2021/07/28 11:35:46;;;;;;;14.15;7.13;;;;;;;24.39;60.66;99296.72;4732992;30;20049;-59
2021/07/28 11:38:21;;;;;;;10.05;7.00;;;;;;;24.51;60.35;99298.16;4727494;30;20049;-61
2021/07/28 11:40:48;;;;;;;13.07;8.05;;;;;;;24.53;60.47;99292.69;4736100;30;20545;-61
2021/07/28 11:43:42;;;;;;;17.35;7.10;;;;;;;24.81;60.18;99287.13;4728649;30;20115;-61
2021/07/28 11:46:13;;;;;;;9.43;7.07;;;;;;;24.99;59.31;99283.69;5219666;24;20096;-59